Portageville, NY (14536)

11:46 PM EST on February 06, 2016 (GMT -0500)
APRSWXNET | | Change Station
CLOSE
Current Station
Personal Weather Station
Location: Hunt, NY
Elevation: 958 ft
Nearby Weather Stations

Elev 958 ft 42.50 °N, 78.00 °W | Updated 40 minutes ago

Overcast
Overcast
31 °F
Feels Like 31 °F
N
0
Wind Variable Wind from SSE
Gusts 3.0 mph

Today
High -- | Low -- °F
--% Chance of Precip.
Yesterday
High -- | Low -- °F
Precip. -- in
Pressure 30.21 in
Visibility 10.0 miles
Clouds Overcast 7500 ft
Windchill 31 °F
Dew Point 24 °F
Humidity 75%
Rainfall in
Snow Depth Not available.
7:21 AM 5:32 PM
Waning Crescent, 3% visible
METAR KDSV 070354Z AUTO 13006KT 10SM OVC075 M01/M06 A3016 RMK AO2 SLP230 T10111061
Pressure 30.21 in
Visibility 10.0 miles
Clouds Overcast 7500 ft
Windchill 31 °F
Dew Point 24 °F
Humidity 75%
Rainfall in
Snow Depth Not available.
7:21 AM 5:32 PM
Waning Crescent, 3% visible
METAR KDSV 070354Z AUTO 13006KT 10SM OVC075 M01/M06 A3016 RMK AO2 SLP230 T10111061

10-Day Weather Forecast

Almanac

Astronomy

Feb. 06, 2016 Rise Set
Actual Time
Civil Twilight
Nautical Twilight
Astronomical Twilight
Moon
Length of Visible Light
Length of Day
Tomorrow will be .
, % of the Moon is Illuminated

Today's Extremes

State Highs State Lows

Community

WunderPhotos

Upload Photos

1,891,157 photos uploaded!

WunderBlog® & News

Nearby

Air Quality

  Air Quality AQ Index Pollutant
Not available.

Snow Depth

Station Depth Elevation

Earthquake Activity

City Distance Mag. Time & Date
Minimum magnitude displayed is 2.5.

Coastal Water Temperatures

Place Temperature

Stations

Nearby Weather Stations

Station Location Temp. Windchill Dew Point Humidity Wind Precip. Elev Updated Type
                   

Watches & Warnings

There are currently no watches in effect.